Time;durP1;ratioP1;P1;durP2;ratioP2;P2;SDS_P1;SDS_P2;PMS_P1;PMS_P2;Temp;Humidity;BMP_temperature;BMP_pressure;BME280_temperature;BME280_humidity;BME280_pressure;Samples;Min_cycle;Max_cycle;Signal;HPM_P1;HPM_P2
2023/06/21 00:00:42;;;;;;;1.38;1.25;;;;;;;20.85;74.83;99530.38;5093903;28;20040;-64
2023/06/21 00:03:10;;;;;;;2.60;1.45;;;;;;;20.83;74.92;99531.41;5093599;28;20547;-63
2023/06/21 00:05:39;;;;;;;3.90;1.50;;;;;;;20.74;74.95;99527.44;5093525;28;20048;-64
2023/06/21 00:08:11;;;;;;;1.73;1.20;;;;;;;20.71;74.81;99532.75;5092389;28;20051;-63
2023/06/21 00:10:41;;;;;;;2.33;1.50;;;;;;;20.78;74.66;99536.75;5093813;28;20440;-64
2023/06/21 00:13:11;;;;;;;3.75;1.98;;;;;;;20.80;74.59;99542.75;5093490;28;20040;-64
2023/06/21 00:15:40;;;;;;;2.15;1.35;;;;;;;20.73;74.58;99541.34;5094070;28;20074;-63
2023/06/21 00:18:08;;;;;;;1.43;0.90;;;;;;;20.69;74.56;99542.38;5093465;28;20079;-64
2023/06/21 00:20:38;;;;;;;1.50;1.40;;;;;;;20.69;74.76;99534.59;5093798;28;20044;-63
2023/06/21 00:23:08;;;;;;;1.63;1.52;;;;;;;20.74;74.80;99543.00;5093688;28;20517;-63
2023/06/21 00:25:37;;;;;;;2.75;2.08;;;;;;;20.77;74.63;99553.25;5093455;28;20098;-64
2023/06/21 00:28:07;;;;;;;1.10;1.00;;;;;;;20.72;74.64;99534.44;5093319;28;20095;-64
2023/06/21 00:30:37;;;;;;;0.93;0.80;;;;;;;20.76;74.66;99546.38;5092405;28;20040;-64
2023/06/21 00:33:06;;;;;;;2.00;1.55;;;;;;;20.69;74.47;99544.94;5093677;28;20386;-63
2023/06/21 00:35:35;;;;;;;6.00;1.73;;;;;;;20.65;74.50;99539.06;5092177;28;20054;-64
2023/06/21 00:38:05;;;;;;;1.20;0.98;;;;;;;20.57;74.47;99530.78;5093198;28;20300;-63
2023/06/21 00:40:34;;;;;;;2.33;2.13;;;;;;;20.51;74.76;99525.03;5093150;28;20093;-64
2023/06/21 00:43:04;;;;;;;;;;;;;;;20.47;74.92;99533.81;5093665;28;20131;-63
2023/06/21 00:45:38;;;;;;;0.98;0.98;;;;;;;20.40;75.11;99535.00;5093264;28;20301;-63
2023/06/21 00:48:08;;;;;;;1.27;1.10;;;;;;;20.40;75.35;99532.41;5091996;28;20055;-63
2023/06/21 00:50:39;;;;;;;2.72;1.40;;;;;;;20.38;75.32;99535.06;5093140;28;20067;-63
2023/06/21 00:53:09;;;;;;;0.73;0.73;;;;;;;20.38;75.22;99534.22;5093188;28;20098;-64
2023/06/21 00:55:40;;;;;;;1.08;0.98;;;;;;;20.35;75.54;99542.13;5095900;28;20440;-63
2023/06/21 00:58:09;;;;;;;2.17;1.42;;;;;;;20.36;75.26;99536.91;5095999;28;20102;-63
2023/06/21 01:00:38;;;;;;;0.95;0.90;;;;;;;20.35;75.46;99540.38;5096893;28;20040;-64
2023/06/21 01:03:09;;;;;;;1.67;1.55;;;;;;;20.32;75.38;99518.94;5097069;28;20040;-64
2023/06/21 01:05:38;;;;;;;3.00;2.05;;;;;;;20.31;75.36;99532.81;5096623;28;20052;-64
2023/06/21 01:08:17;;;;;;;1.48;1.38;;;;;;;20.32;75.33;99526.72;5096336;28;20048;-63
2023/06/21 01:11:03;;;;;;;1.55;0.93;;;;;;;20.32;75.44;99534.50;5095422;28;20505;-64
2023/06/21 01:13:44;;;;;;;0.90;0.90;;;;;;;20.18;75.52;99526.44;5096969;28;20122;-64
2023/06/21 01:16:16;;;;;;;1.92;1.77;;;;;;;20.20;75.55;99524.63;5095553;28;20044;-64
2023/06/21 01:18:50;;;;;;;2.10;1.90;;;;;;;20.25;75.60;99533.09;5096789;28;20461;-63
2023/06/21 01:21:23;;;;;;;0.60;0.60;;;;;;;20.23;75.57;99532.31;5096581;28;20044;-63
2023/06/21 01:24:20;;;;;;;1.38;1.15;;;;;;;20.19;75.50;99520.34;5096449;28;20044;-63
2023/06/21 01:27:08;;;;;;;1.13;1.02;;;;;;;20.10;75.75;99528.50;5096321;28;20048;-62
2023/06/21 01:29:41;;;;;;;1.75;1.65;;;;;;;20.11;75.71;99528.44;5096319;28;20424;-62
2023/06/21 01:32:13;;;;;;;1.42;1.23;;;;;;;20.08;75.99;99525.13;5096644;28;20089;-62
2023/06/21 01:34:42;;;;;;;3.47;1.83;;;;;;;19.98;76.06;99509.97;5095314;28;20052;-62
2023/06/21 01:37:11;;;;;;;;;;;;;;;20.03;76.20;99522.75;5096603;28;20040;-62
2023/06/21 01:39:40;;;;;;;2.80;1.33;;;;;;;20.06;75.96;99530.34;5095813;28;19927;-62
2023/06/21 01:42:09;;;;;;;2.35;1.90;;;;;;;19.96;76.02;99519.53;5095168;28;20032;-62
2023/06/21 01:44:41;;;;;;;1.23;1.13;;;;;;;19.98;76.16;99529.84;5096333;28;20081;-63
2023/06/21 01:47:11;;;;;;;1.80;1.42;;;;;;;19.99;76.17;99527.19;5095105;28;20514;-62
2023/06/21 01:49:41;;;;;;;1.38;1.27;;;;;;;19.96;75.99;99511.75;5094575;28;20067;-62
2023/06/21 01:52:11;;;;;;;2.50;1.05;;;;;;;20.00;76.07;99523.72;5095876;28;20064;-63
2023/06/21 01:54:42;;;;;;;0.60;0.60;;;;;;;19.97;nan;99523.81;5095035;28;20040;-63
2023/06/21 01:57:14;;;;;;;26.00;1.70;;;;;;;19.94;76.28;99523.94;5095811;28;20085;-62
2023/06/21 01:59:45;;;;;;;1.35;1.25;;;;;;;19.95;76.34;99530.81;5094622;28;20036;-63
2023/06/21 02:02:16;;;;;;;1.05;1.00;;;;;;;19.94;76.54;99531.72;5094537;28;20054;-63
2023/06/21 02:04:47;;;;;;;1.33;1.23;;;;;;;19.94;76.32;99526.53;5095676;28;20056;-62
2023/06/21 02:07:17;;;;;;;1.40;1.30;;;;;;;19.88;76.42;99531.13;5094098;28;20098;-62
2023/06/21 02:09:48;;;;;;;1.02;0.93;;;;;;;19.82;76.52;99540.00;5095706;28;20040;-62
2023/06/21 02:12:17;;;;;;;1.67;1.13;;;;;;;19.75;76.72;99543.72;5094642;28;20105;-62
2023/06/21 02:14:48;;;;;;;1.63;1.52;;;;;;;19.74;76.66;99547.25;5095720;28;20048;-63
2023/06/21 02:17:17;;;;;;;1.25;1.15;;;;;;;19.74;76.73;99547.25;5095392;28;20051;-62
2023/06/21 02:19:45;;;;;;;1.90;1.40;;;;;;;19.68;76.62;99539.69;5095870;28;20040;-62
2023/06/21 02:22:18;;;;;;;2.78;1.83;;;;;;;19.68;76.60;99534.53;5095293;28;20130;-63
2023/06/21 02:24:47;;;;;;;2.22;1.33;;;;;;;19.69;76.86;99528.44;5094103;28;20048;-62
2023/06/21 02:27:17;;;;;;;4.72;1.83;;;;;;;19.67;76.77;99530.28;5095774;28;20047;-62
2023/06/21 02:29:47;;;;;;;2.08;1.75;;;;;;;19.69;76.62;99533.63;5094982;28;20040;-62
2023/06/21 02:32:16;;;;;;;3.10;1.65;;;;;;;19.65;76.59;99537.22;5093888;28;20047;-62
2023/06/21 02:34:45;;;;;;;1.67;1.55;;;;;;;19.73;76.54;99530.00;5095358;28;20437;-62
2023/06/21 02:37:14;;;;;;;2.83;1.77;;;;;;;19.71;76.48;99537.00;5094126;28;20125;-62
2023/06/21 02:39:44;;;;;;;2.47;1.60;;;;;;;19.68;76.60;99533.69;5094787;28;20062;-62
2023/06/21 02:42:13;;;;;;;1.75;1.55;;;;;;;19.66;76.58;99533.75;5094821;28;20130;-62
2023/06/21 02:44:45;;;;;;;1.63;1.30;;;;;;;19.68;76.43;99542.28;5095208;28;20048;-63
2023/06/21 02:47:15;;;;;;;0.95;0.82;;;;;;;19.70;76.42;99545.66;5095084;28;20445;-62
2023/06/21 02:49:44;;;;;;;1.48;1.38;;;;;;;19.66;76.41;99548.44;5093600;28;20062;-62
2023/06/21 02:52:14;;;;;;;1.75;1.30;;;;;;;19.59;76.55;99545.25;5093856;28;20056;-62
2023/06/21 02:54:43;;;;;;;1.98;1.67;;;;;;;19.67;76.55;99550.97;5094989;28;20051;-62
2023/06/21 02:57:12;;;;;;;1.70;1.60;;;;;;;19.63;76.44;99541.63;5093435;28;20033;-62
2023/06/21 02:59:42;;;;;;;0.80;0.70;;;;;;;19.59;76.60;99553.03;5094665;28;20351;-62
2023/06/21 03:02:11;;;;;;;1.48;0.73;;;;;;;19.58;76.93;99551.31;5127285;27;20397;-62
2023/06/21 03:04:41;;;;;;;1.15;0.80;;;;;;;19.62;76.77;99552.91;5093599;28;20040;-62
2023/06/21 03:07:10;;;;;;;1.20;1.00;;;;;;;19.67;76.74;99552.72;5094761;28;20589;-63
2023/06/21 03:09:39;;;;;;;1.20;1.05;;;;;;;19.64;76.61;99566.63;5094667;28;20048;-62
2023/06/21 03:12:08;;;;;;;;;;;;;;;19.63;76.70;99572.69;5094630;28;20097;-62
2023/06/21 03:14:41;;;;;;;0.98;0.95;;;;;;;19.59;76.71;99572.88;5094620;28;19966;-62
2023/06/21 03:17:10;;;;;;;1.13;1.02;;;;;;;19.54;76.98;99573.06;5092954;28;20059;-62
2023/06/21 03:19:41;;;;;;;1.48;1.38;;;;;;;19.62;76.86;99593.50;5126858;27;20036;-62
2023/06/21 03:22:11;;;;;;;2.67;1.48;;;;;;;19.61;76.67;99597.81;5094196;28;20047;-62
2023/06/21 03:24:43;;;;;;;1.55;1.42;;;;;;;19.62;76.77;99596.09;5094476;28;20087;-62
2023/06/21 03:27:13;;;;;;;1.85;1.30;;;;;;;19.59;76.53;99589.28;5092962;28;20073;-62
2023/06/21 03:29:43;;;;;;;1.13;0.90;;;;;;;19.64;76.57;99602.88;5092894;28;20048;-62
2023/06/21 03:32:13;;;;;;;9.23;2.47;;;;;;;19.69;76.71;99606.16;5092810;28;20412;-62
2023/06/21 03:34:44;;;;;;;1.33;1.23;;;;;;;19.51;76.48;99570.59;5094232;28;20097;-62
2023/06/21 03:37:13;;;;;;;1.88;1.63;;;;;;;19.70;76.77;99602.63;5127179;27;20051;-62
2023/06/21 03:39:42;;;;;;;2.67;1.40;;;;;;;19.71;76.66;99593.97;5093694;28;20052;-62
2023/06/21 03:42:12;;;;;;;1.65;1.13;;;;;;;19.75;76.44;99600.72;5093867;28;20040;-62
2023/06/21 03:44:42;;;;;;;2.38;2.05;;;;;;;19.73;76.48;99599.09;5093795;28;20044;-62
2023/06/21 03:47:11;;;;;;;1.70;1.25;;;;;;;19.75;76.52;99598.13;5092695;28;20032;-62
2023/06/21 03:49:44;;;;;;;2.72;1.73;;;;;;;19.77;76.79;99603.25;5093706;28;20050;-62
2023/06/21 03:52:14;;;;;;;0.60;0.60;;;;;;;19.77;76.78;99604.09;5094023;28;20048;-62
2023/06/21 03:54:43;;;;;;;1.60;1.45;;;;;;;19.69;76.91;99579.41;5092495;28;20042;-62
2023/06/21 03:57:12;;;;;;;1.17;0.95;;;;;;;19.94;76.88;99596.50;5092838;28;20044;-62
2023/06/21 03:59:43;;;;;;;2.75;1.08;;;;;;;19.98;76.77;99594.63;5093765;28;20048;-62
2023/06/21 04:02:11;;;;;;;2.10;1.40;;;;;;;19.94;76.70;99591.31;5093702;28;20074;-62
2023/06/21 04:04:40;;;;;;;2.37;1.23;;;;;;;19.95;76.60;99598.19;5092344;28;20105;-64
2023/06/21 04:07:11;;;;;;;2.60;1.63;;;;;;;19.92;77.15;99598.31;5093858;28;20723;-64
2023/06/21 04:09:41;;;;;;;1.23;1.13;;;;;;;19.96;77.36;99605.03;5093919;28;20405;-62
2023/06/21 04:12:10;;;;;;;1.30;1.17;;;;;;;20.09;77.26;99600.22;5092648;28;20090;-62
2023/06/21 04:14:39;;;;;;;1.73;1.50;;;;;;;20.18;77.05;99599.00;5092324;28;20036;-62
2023/06/21 04:17:08;;;;;;;1.30;1.20;;;;;;;20.27;76.65;99598.66;5092317;28;20541;-62
2023/06/21 04:19:37;;;;;;;1.65;1.30;;;;;;;20.35;76.35;99605.19;5092602;28;20101;-63
2023/06/21 04:22:07;;;;;;;1.38;1.27;;;;;;;20.43;76.09;99615.25;5093431;28;20101;-62
2023/06/21 04:24:38;;;;;;;1.17;1.02;;;;;;;20.48;75.69;99608.13;5092179;28;20118;-63
2023/06/21 04:27:07;;;;;;;2.05;1.40;;;;;;;20.53;75.54;99606.19;5092476;28;20048;-63
2023/06/21 04:29:39;;;;;;;1.75;1.65;;;;;;;20.65;75.48;99606.53;5093469;28;20052;-63
2023/06/21 04:32:08;;;;;;;9.55;1.15;;;;;;;20.80;75.24;99599.81;5097429;28;20047;-63
2023/06/21 04:34:38;;;;;;;9.60;2.35;;;;;;;20.83;74.74;99609.22;5096424;28;20440;-63
2023/06/21 04:37:08;;;;;;;2.05;1.42;;;;;;;20.92;74.39;99620.06;5096128;28;20127;-63
2023/06/21 04:39:38;;;;;;;1.52;1.42;;;;;;;21.04;74.04;99611.69;5096937;28;20055;-63
2023/06/21 04:42:07;;;;;;;1.60;1.23;;;;;;;21.18;73.73;99606.78;5097254;28;20043;-63
2023/06/21 04:44:36;;;;;;;2.65;1.13;;;;;;;21.35;73.53;99609.44;5097180;28;20048;-63
2023/06/21 04:47:05;;;;;;;3.22;1.63;;;;;;;21.44;72.95;99607.34;5097353;28;20067;-63
2023/06/21 04:49:35;;;;;;;1.75;1.38;;;;;;;21.49;72.74;99589.78;5097073;28;20056;-63
2023/06/21 04:52:04;;;;;;;2.05;1.63;;;;;;;21.63;72.14;99597.78;5096938;28;20036;-63
2023/06/21 04:54:33;;;;;;;16.23;1.63;;;;;;;21.68;71.75;99590.63;5097024;28;20036;-63
2023/06/21 04:57:04;;;;;;;1.02;0.82;;;;;;;21.77;71.80;99585.81;5096955;28;20039;-63
2023/06/21 04:59:32;;;;;;;1.50;1.15;;;;;;;21.96;71.63;99584.06;5097258;28;20051;-65
2023/06/21 05:02:01;;;;;;;3.45;0.82;;;;;;;22.12;71.12;99586.75;5097167;28;20055;-62
2023/06/21 05:04:31;;;;;;;2.55;1.52;;;;;;;22.31;70.75;99582.34;5096777;28;20050;-63
2023/06/21 05:07:00;;;;;;;1.08;0.98;;;;;;;22.37;70.27;99574.19;5096635;28;20516;-64
2023/06/21 05:09:29;;;;;;;1.83;1.65;;;;;;;22.51;70.12;99576.09;5095550;28;20032;-64
2023/06/21 05:11:57;;;;;;;1.60;1.00;;;;;;;22.51;69.92;99563.94;5096788;28;20516;-64
2023/06/21 05:14:28;;;;;;;1.70;1.33;;;;;;;22.54;69.73;99574.19;5096970;28;20276;-64
2023/06/21 05:16:57;;;;;;;1.58;1.23;;;;;;;22.50;69.29;99570.06;5097387;28;20066;-64
2023/06/21 05:19:26;;;;;;;2.57;1.63;;;;;;;22.54;68.95;99574.19;5096865;28;20359;-65
2023/06/21 05:21:55;;;;;;;1.25;0.90;;;;;;;22.67;68.75;99566.63;5096551;28;20044;-64
2023/06/21 05:24:23;;;;;;;1.75;1.52;;;;;;;22.80;68.43;99569.41;5096403;28;20040;-64
2023/06/21 05:26:52;;;;;;;0.95;0.80;;;;;;;23.05;68.08;99572.44;5097200;28;20573;-65
2023/06/21 05:29:24;;;;;;;1.13;0.93;;;;;;;23.17;67.45;99563.97;5096434;28;20062;-63
2023/06/21 05:31:54;;;;;;;1.60;1.13;;;;;;;23.26;67.03;99560.84;5096271;28;20044;-65
2023/06/21 05:34:23;;;;;;;1.05;0.95;;;;;;;23.33;66.66;99564.81;5096599;28;20044;-63
2023/06/21 05:36:52;;;;;;;1.40;1.05;;;;;;;23.42;66.28;99569.53;5096203;28;20040;-63
2023/06/21 05:39:20;;;;;;;1.27;1.02;;;;;;;23.46;66.23;99560.66;5095909;28;20055;-64
2023/06/21 05:41:49;;;;;;;1.80;1.65;;;;;;;23.53;66.13;99564.59;5095107;28;20052;-63
2023/06/21 05:44:18;;;;;;;2.47;1.88;;;;;;;23.63;66.22;99564.91;5096348;28;20048;-62
2023/06/21 05:46:47;;;;;;;1.30;1.17;;;;;;;23.74;65.93;99566.00;5096308;28;20051;-64
2023/06/21 05:49:18;;;;;;;1.10;1.00;;;;;;;23.86;65.60;99556.63;5096332;28;20066;-64
2023/06/21 05:51:46;;;;;;;2.70;1.25;;;;;;;24.04;65.27;99563.41;5094133;28;20044;-64
2023/06/21 05:54:15;;;;;;;1.27;1.17;;;;;;;24.22;64.86;99556.31;5112882;28;20039;-64
2023/06/21 05:56:44;;;;;;;1.85;1.63;;;;;;;24.34;64.17;99555.59;5115170;28;20051;-64
2023/06/21 05:59:13;;;;;;;1.30;1.15;;;;;;;24.45;63.75;99553.22;5116445;27;20042;-64
2023/06/21 06:01:42;;;;;;;1.08;0.98;;;;;;;24.56;63.50;99554.25;5115022;28;20043;-65
2023/06/21 06:04:11;;;;;;;1.30;1.03;;;;;;;24.62;62.78;99560.84;5095824;28;20036;-64
2023/06/21 06:06:42;;;;;;;1.25;1.10;;;;;;;24.73;62.55;99563.66;5095540;28;20044;-64
2023/06/21 06:09:12;;;;;;;1.63;1.52;;;;;;;24.86;63.04;99569.84;5095551;28;20058;-65
2023/06/21 06:11:41;;;;;;;0.70;0.70;;;;;;;25.02;63.01;99575.84;5095388;28;20113;-67
2023/06/21 06:14:11;;;;;;;1.42;1.33;;;;;;;25.11;62.84;99564.81;5096029;28;20113;-64
2023/06/21 06:16:40;;;;;;;1.80;1.00;;;;;;;25.14;62.37;99564.63;5100294;28;20120;-64
2023/06/21 06:19:09;;;;;;;1.35;1.25;;;;;;;25.30;62.37;99567.09;5093548;28;20040;-65
2023/06/21 06:21:37;;;;;;;1.40;1.10;;;;;;;25.44;62.20;99571.44;5098733;28;20055;-64
2023/06/21 06:24:08;;;;;;;1.20;1.10;;;;;;;25.58;62.44;99574.91;5112792;28;20036;-64
2023/06/21 06:26:37;;;;;;;1.05;0.95;;;;;;;25.69;61.53;99577.69;5111473;28;20032;-64
2023/06/21 06:29:06;;;;;;;8.43;1.80;;;;;;;25.74;60.95;99572.16;5100241;28;20486;-65
2023/06/21 06:31:35;;;;;;;1.38;1.00;;;;;;;25.82;60.89;99569.88;5099138;28;20038;-64
2023/06/21 06:34:03;;;;;;;2.35;1.70;;;;;;;25.99;60.81;99568.81;5095112;28;20068;-64
2023/06/21 06:36:32;;;;;;;2.70;1.33;;;;;;;26.18;60.51;99577.97;5108415;28;20028;-64
2023/06/21 06:39:01;;;;;;;2.03;1.42;;;;;;;26.37;59.99;99581.03;5114972;28;20056;-64
2023/06/21 06:41:31;;;;;;;3.63;0.95;;;;;;;26.44;59.52;99579.66;5106488;28;20109;-64
2023/06/21 06:44:05;;;;;;;2.47;1.50;;;;;;;26.47;58.54;99573.41;5094533;28;20105;-64
2023/06/21 06:46:34;;;;;;;0.75;0.60;;;;;;;26.47;58.67;99566.38;5094766;28;20054;-64
2023/06/21 06:49:03;;;;;;;0.80;0.65;;;;;;;26.58;58.26;99566.50;5095132;28;20449;-64
2023/06/21 06:51:32;;;;;;;1.75;1.45;;;;;;;26.73;58.37;99574.25;5103594;28;20039;-64
2023/06/21 06:54:01;;;;;;;3.42;1.55;;;;;;;26.88;58.12;99581.06;5113865;28;20043;-65
2023/06/21 06:56:33;;;;;;;7.85;1.55;;;;;;;27.07;57.81;99586.72;5114957;28;20047;-64
2023/06/21 06:59:02;;;;;;;2.05;1.65;;;;;;;27.17;57.55;99579.88;5115323;28;20055;-64
2023/06/21 07:01:31;;;;;;;3.25;1.70;;;;;;;27.29;56.29;99594.75;5105273;28;20482;-64
2023/06/21 07:04:00;;;;;;;4.93;2.50;;;;;;;27.43;56.25;99599.88;5094480;28;20127;-65
2023/06/21 07:06:29;;;;;;;0.93;0.90;;;;;;;27.64;56.43;99597.53;5094454;28;20052;-64
2023/06/21 07:08:58;;;;;;;1.15;1.05;;;;;;;27.63;55.82;99578.31;5094452;28;20135;-64
2023/06/21 07:11:27;;;;;;;9.40;1.25;;;;;;;27.77;55.26;99604.41;5093986;28;20093;-64
2023/06/21 07:13:57;;;;;;;1.20;1.10;;;;;;;27.90;54.70;99610.44;5094508;28;20524;-65
2023/06/21 07:16:26;;;;;;;0.98;0.90;;;;;;;27.95;54.41;99601.38;5094338;28;20055;-65
2023/06/21 07:18:54;;;;;;;1.10;1.00;;;;;;;28.16;54.38;99615.56;5094471;28;20512;-65
2023/06/21 07:21:27;;;;;;;1.23;1.08;;;;;;;28.27;54.05;99623.50;5101107;28;20115;-65
2023/06/21 07:23:56;;;;;;;0.57;0.57;;;;;;;28.35;54.97;99632.47;5113534;28;20040;-65
2023/06/21 07:26:25;;;;;;;1.10;0.88;;;;;;;28.40;55.09;99624.25;5108167;28;20046;-64
2023/06/21 07:28:53;;;;;;;1.02;0.93;;;;;;;28.40;53.82;99625.09;5104414;28;20066;-65
2023/06/21 07:31:24;;;;;;;1.27;0.82;;;;;;;28.36;54.31;99622.81;5094798;28;20043;-65
2023/06/21 07:33:57;;;;;;;1.27;0.82;;;;;;;28.29;54.28;99616.34;5118977;27;20044;-64
2023/06/21 07:36:26;;;;;;;1.30;1.20;;;;;;;28.39;54.46;99622.56;5114425;28;20047;-64
2023/06/21 07:38:56;;;;;;;1.27;1.13;;;;;;;28.54;54.18;99616.19;5094307;28;20123;-65
2023/06/21 07:41:24;;;;;;;2.78;1.90;;;;;;;28.68;54.00;99618.63;5094178;28;20044;-65
2023/06/21 07:43:53;;;;;;;1.40;1.23;;;;;;;28.77;53.61;99612.66;5093881;28;20040;-65
2023/06/21 07:46:23;;;;;;;0.93;0.77;;;;;;;28.91;53.16;99619.50;5110752;28;20047;-65
2023/06/21 07:48:52;;;;;;;3.65;1.80;;;;;;;29.10;53.23;99620.59;5112853;28;20138;-65
2023/06/21 07:51:21;;;;;;;1.17;1.08;;;;;;;29.08;52.74;99617.22;5114093;27;20047;-65
2023/06/21 07:53:50;;;;;;;0.85;0.85;;;;;;;28.84;53.22;99629.63;5113930;28;20039;-65
2023/06/21 07:56:19;;;;;;;0.50;0.50;;;;;;;28.75;53.74;99622.47;5114413;28;20063;-65
2023/06/21 07:58:48;;;;;;;1.92;1.30;;;;;;;28.58;53.48;99617.59;5093346;28;20085;-64
2023/06/21 08:01:16;;;;;;;1.55;1.20;;;;;;;28.36;53.64;99622.81;5093915;28;20044;-65
2023/06/21 08:03:47;;;;;;;0.95;0.95;;;;;;;28.14;54.41;99599.09;5108975;28;20052;-64
2023/06/21 08:06:15;;;;;;;1.55;1.20;;;;;;;28.21;54.22;99616.09;5113470;28;20108;-67
2023/06/21 08:08:44;;;;;;;1.38;1.05;;;;;;;28.16;55.08;99626.06;5091454;28;20032;-65
2023/06/21 08:11:13;;;;;;;2.70;1.00;;;;;;;28.09;55.54;99630.94;5093081;28;20032;-65
2023/06/21 08:13:42;;;;;;;0.95;0.88;;;;;;;28.04;55.88;99637.47;5093306;28;20044;-64
2023/06/21 08:16:11;;;;;;;1.10;0.65;;;;;;;27.95;56.52;99625.00;5102877;28;20105;-65
2023/06/21 08:18:40;;;;;;;1.77;1.42;;;;;;;27.82;55.97;99612.78;5094496;28;20072;-65
2023/06/21 08:21:10;;;;;;;1.33;1.08;;;;;;;27.91;55.83;99627.84;5093551;28;20047;-65
2023/06/21 08:23:39;;;;;;;1.55;1.13;;;;;;;27.86;55.93;99631.75;5094089;28;20123;-65
2023/06/21 08:26:10;;;;;;;1.25;0.98;;;;;;;27.85;56.50;99624.84;5114044;28;20393;-65
2023/06/21 08:28:39;;;;;;;1.80;1.25;;;;;;;27.81;56.87;99626.81;5101504;28;20068;-65
2023/06/21 08:31:07;;;;;;;1.27;1.05;;;;;;;27.81;57.58;99632.06;5093194;28;20426;-65
2023/06/21 08:33:36;;;;;;;0.63;0.63;;;;;;;27.76;58.85;99639.44;5093210;28;20051;-65
2023/06/21 08:36:06;;;;;;;1.33;1.10;;;;;;;27.72;59.15;99638.00;5092956;28;20131;-64
2023/06/21 08:38:37;;;;;;;1.27;0.82;;;;;;;27.67;59.52;99634.84;5092819;28;20047;-65
2023/06/21 08:41:06;;;;;;;1.10;1.00;;;;;;;27.57;60.40;99644.31;5053090;28;20068;-64
2023/06/21 08:43:35;;;;;;;1.98;1.80;;;;;;;27.56;61.35;99645.28;5052958;28;20052;-64
2023/06/21 08:46:07;;;;;;;0.68;0.68;;;;;;;27.51;61.87;99644.78;5053474;28;20033;-65
2023/06/21 08:48:38;;;;;;;1.45;1.00;;;;;;;27.47;62.04;99651.19;5052881;28;20099;-65
2023/06/21 08:51:07;;;;;;;1.98;1.60;;;;;;;27.41;61.96;99646.38;5052872;28;20052;-65
2023/06/21 08:53:45;;;;;;;1.75;1.35;;;;;;;27.37;61.76;99651.91;5052837;28;20045;-65
2023/06/21 08:56:19;;;;;;;1.40;1.17;;;;;;;27.35;62.10;99649.41;5053526;28;20045;-64
2023/06/21 08:58:54;;;;;;;1.67;1.40;;;;;;;27.39;62.42;99656.13;5073307;28;20079;-65
2023/06/21 09:01:25;;;;;;;1.35;1.20;;;;;;;27.48;62.30;99660.72;5073169;28;20040;-64
2023/06/21 09:03:58;;;;;;;1.27;1.10;;;;;;;27.54;61.78;99665.53;5072915;28;20070;-64
2023/06/21 09:06:28;;;;;;;1.33;1.23;;;;;;;27.58;61.00;99667.00;5071605;28;20048;-65
2023/06/21 09:08:58;;;;;;;;;;;;;;;27.62;60.76;99665.81;5073139;28;20052;-64
2023/06/21 09:11:28;;;;;;;1.38;1.08;;;;;;;27.62;61.01;99660.56;5073257;28;19920;-64
2023/06/21 09:13:57;;;;;;;1.42;1.13;;;;;;;27.64;60.95;99666.53;5070847;28;20048;-65
2023/06/21 09:16:27;;;;;;;5.22;3.90;;;;;;;27.65;61.36;99668.22;5073552;28;20036;-64
2023/06/21 09:18:57;;;;;;;2.40;1.80;;;;;;;27.57;61.81;99644.31;5073159;28;20124;-64
2023/06/21 09:21:26;;;;;;;5.28;1.45;;;;;;;27.58;62.12;99653.88;5075356;28;20570;-65
2023/06/21 09:23:55;;;;;;;2.20;1.02;;;;;;;27.48;62.35;99660.72;5076503;28;20045;-64
2023/06/21 09:26:25;;;;;;;;;;;;;;;27.46;62.87;99665.22;5076768;28;20033;-64
2023/06/21 09:28:55;;;;;;;1.25;1.13;;;;;;;27.41;63.73;99669.97;5071443;28;19999;-64
2023/06/21 09:31:24;;;;;;;1.20;1.08;;;;;;;27.39;63.88;99671.84;5056020;28;20052;-64
2023/06/21 09:33:55;;;;;;;1.85;1.30;;;;;;;27.37;63.67;99673.72;5055995;28;20044;-64
2023/06/21 09:36:25;;;;;;;7.97;2.15;;;;;;;27.25;64.31;99670.16;5056253;28;20053;-64
2023/06/21 09:39:07;;;;;;;2.30;1.50;;;;;;;27.20;64.12;99653.91;5070489;28;20033;-65
2023/06/21 09:41:39;;;;;;;2.92;2.25;;;;;;;27.12;64.58;99637.03;5116825;28;20040;-64
2023/06/21 09:44:08;;;;;;;1.08;1.00;;;;;;;27.24;64.93;99650.13;5116747;28;20054;-65
2023/06/21 09:46:37;;;;;;;1.80;1.15;;;;;;;27.26;65.28;99657.88;5116721;28;20043;-65
2023/06/21 09:49:09;;;;;;;4.05;1.90;;;;;;;27.30;65.44;99661.97;5114939;28;20058;-65
2023/06/21 09:51:43;;;;;;;2.28;1.20;;;;;;;27.18;65.57;99649.72;5117070;28;20046;-64
2023/06/21 09:54:12;;;;;;;0.98;0.93;;;;;;;27.26;65.64;99670.97;5115789;28;20512;-68
2023/06/21 09:56:42;;;;;;;1.17;0.90;;;;;;;27.31;66.55;99679.38;5107371;28;20456;-65
2023/06/21 09:59:15;;;;;;;1.05;0.98;;;;;;;27.35;66.92;99674.78;5096400;28;20379;-64
2023/06/21 10:01:47;;;;;;;1.75;1.55;;;;;;;27.37;66.73;99673.72;5095690;28;20036;-65
2023/06/21 10:04:18;;;;;;;0.82;0.82;;;;;;;27.38;67.49;99675.41;5104926;28;20126;-64
2023/06/21 10:06:49;;;;;;;0.77;0.70;;;;;;;27.36;67.42;99672.03;5116054;28;20164;-64
2023/06/21 10:09:19;;;;;;;1.20;1.10;;;;;;;27.45;67.61;99673.22;5116032;28;20093;-65
2023/06/21 10:11:50;;;;;;;7.22;1.63;;;;;;;27.58;67.24;99677.47;5115888;28;20035;-65
2023/06/21 10:14:20;;;;;;;1.00;0.90;;;;;;;27.71;66.75;99673.06;5114625;28;20039;-64
2023/06/21 10:16:51;;;;;;;4.22;1.33;;;;;;;27.81;66.53;99668.81;5116179;28;20163;-64
2023/06/21 10:19:23;;;;;;;0.80;0.80;;;;;;;27.89;66.67;99671.72;5116058;28;20058;-65
2023/06/21 10:21:58;;;;;;;1.08;0.98;;;;;;;27.87;66.02;99668.38;5115747;28;20527;-65
2023/06/21 10:24:30;;;;;;;1.90;1.48;;;;;;;27.88;65.35;99664.78;5113321;27;20092;-64
2023/06/21 10:27:01;;;;;;;1.38;1.00;;;;;;;27.87;64.57;99667.53;5100096;28;20075;-65
2023/06/21 10:29:32;;;;;;;1.95;1.48;;;;;;;27.90;64.55;99665.53;5095467;28;20071;-65
2023/06/21 10:32:02;;;;;;;2.88;1.88;;;;;;;28.24;63.95;99676.25;5095533;28;20044;-65
2023/06/21 10:34:40;;;;;;;1.58;1.48;;;;;;;28.61;62.61;99675.22;5096782;28;20114;-64
2023/06/21 10:37:18;;;;;;;1.20;1.10;;;;;;;28.80;60.62;99675.50;5094174;28;20113;-65
2023/06/21 10:39:52;;;;;;;1.33;1.02;;;;;;;29.12;60.32;99670.41;5093668;28;20406;-64
2023/06/21 10:42:40;;;;;;;3.40;1.17;;;;;;;29.42;59.60;99672.50;5095463;28;20040;-65
2023/06/21 10:45:11;;;;;;;6.55;1.25;;;;;;;29.46;58.20;99673.94;5106986;28;20039;-65
2023/06/21 10:47:41;;;;;;;1.08;1.00;;;;;;;29.57;57.60;99668.66;5093279;28;20415;-65
2023/06/21 10:50:12;;;;;;;1.33;1.13;;;;;;;29.67;57.68;99669.59;5093250;28;20032;-63
2023/06/21 10:52:42;;;;;;;0.73;0.73;;;;;;;29.85;57.30;99668.16;5095065;28;20056;-66
2023/06/21 10:55:14;;;;;;;2.53;1.13;;;;;;;29.80;56.98;99651.91;5096048;28;20043;-65
2023/06/21 10:57:45;;;;;;;1.38;1.00;;;;;;;30.03;56.58;99658.78;5094664;28;20046;-65
2023/06/21 11:00:15;;;;;;;1.58;0.93;;;;;;;30.19;55.77;99663.63;5094814;28;20097;-65
2023/06/21 11:02:46;;;;;;;0.88;0.63;;;;;;;30.29;55.14;99659.28;5095007;28;20532;-65
2023/06/21 11:05:19;;;;;;;2.28;1.55;;;;;;;30.21;54.85;99659.09;5096561;28;20035;-66
2023/06/21 11:07:55;;;;;;;1.52;1.00;;;;;;;30.26;54.95;99662.16;5091665;28;20125;-65
2023/06/21 11:10:32;;;;;;;1.75;1.33;;;;;;;30.31;54.65;99646.81;5094540;28;20128;-65
2023/06/21 11:13:02;;;;;;;4.18;1.17;;;;;;;30.44;54.90;99648.34;5093368;28;20097;-65
2023/06/21 11:15:34;;;;;;;2.25;1.30;;;;;;;30.60;54.54;99644.41;5094728;28;20071;-65
2023/06/21 11:18:05;;;;;;;0.85;0.85;;;;;;;30.63;54.19;99644.16;5104978;28;20481;-65
2023/06/21 11:20:46;;;;;;;2.20;1.52;;;;;;;30.60;54.08;99636.50;5111866;28;20137;-64
2023/06/21 11:23:18;;;;;;;2.55;1.08;;;;;;;30.78;53.88;99632.34;5104795;28;20074;-68
2023/06/21 11:25:51;;;;;;;1.95;1.60;;;;;;;30.93;53.97;99617.91;5094303;28;20483;-65
2023/06/21 11:28:26;;;;;;;1.27;1.17;;;;;;;31.20;53.65;99626.03;5094143;28;20047;-65
2023/06/21 11:31:08;;;;;;;1.17;0.98;;;;;;;31.34;53.77;99632.78;5093999;28;20126;-65
2023/06/21 11:33:50;;;;;;;1.38;1.15;;;;;;;31.43;53.41;99632.84;5100251;28;20044;-66
2023/06/21 11:36:21;;;;;;;0.55;0.55;;;;;;;31.52;53.35;99626.75;5097840;28;20478;-65
2023/06/21 11:38:52;;;;;;;1.23;1.00;;;;;;;31.41;53.33;99629.44;5113393;27;20043;-65
2023/06/21 11:41:40;;;;;;;1.80;1.30;;;;;;;31.39;53.25;99625.28;5111213;28;20130;-65
2023/06/21 11:44:13;;;;;;;1.45;1.15;;;;;;;31.16;54.12;99640.47;5094159;28;20044;-64
2023/06/21 11:46:43;;;;;;;1.17;1.08;;;;;;;31.02;53.59;99635.56;5093892;28;20044;-64
2023/06/21 11:49:12;;;;;;;2.33;1.25;;;;;;;31.07;53.20;99630.72;5094029;28;20513;-64